createdAt,value
2024-02-24T00:25:51.479Z,13.87
2024-02-24T00:38:04.444Z,14.37
2024-02-24T01:19:36.778Z,15.90
2024-02-24T01:25:41.745Z,14.60
2024-02-24T02:42:10.124Z,18.67
2024-02-24T02:54:08.260Z,16.77
2024-02-24T03:05:50.141Z,12.77
2024-02-24T03:17:29.982Z,15.83
2024-02-24T03:34:56.101Z,14.97
2024-02-24T03:58:23.110Z,17.03
2024-02-24T04:34:19.113Z,19.90
2024-02-24T05:33:55.967Z,17.27
2024-02-24T05:50:47.607Z,19.03
2024-02-24T05:55:51.265Z,20.13
2024-02-24T06:00:54.070Z,21.47
2024-02-24T06:05:56.879Z,17.57
2024-02-24T06:10:59.598Z,20.17
2024-02-24T06:16:02.437Z,27.17
2024-02-24T06:21:05.407Z,20.73
2024-02-24T06:26:08.230Z,18.53
2024-02-24T06:31:10.805Z,20.10
2024-02-24T06:36:13.354Z,20.80
2024-02-24T06:41:25.490Z,23.20
2024-02-24T06:46:30.541Z,18.60
2024-02-24T06:51:33.118Z,25.73
2024-02-24T06:56:37.009Z,19.27
2024-02-24T07:01:40.616Z,17.50
2024-02-24T07:06:43.965Z,15.63
2024-02-24T07:11:46.870Z,16.17
2024-02-24T07:16:53.842Z,24.53
2024-02-24T07:27:48.100Z,22.10
2024-02-24T07:32:51.604Z,19.93
2024-02-24T07:37:58.063Z,19.23
2024-02-24T07:43:08.029Z,17.57
2024-02-24T07:48:20.537Z,20.57
2024-02-24T07:53:37.822Z,20.43
2024-02-24T07:58:46.368Z,20.40
2024-02-24T08:03:55.134Z,19.60
2024-02-24T08:09:00.604Z,22.73
2024-02-24T08:14:04.834Z,17.00
2024-02-24T08:19:08.647Z,18.50
2024-02-24T08:24:11.720Z,23.57
2024-02-24T08:29:14.282Z,17.03
2024-02-24T08:34:17.903Z,15.90
2024-02-24T08:39:20.573Z,18.50
2024-02-24T08:44:25.402Z,15.87
2024-02-24T08:49:28.087Z,21.67
2024-02-24T08:54:31.736Z,17.23
2024-02-24T08:59:36.609Z,16.73
2024-02-24T09:04:39.814Z,14.47
2024-02-24T09:09:42.447Z,16.27
2024-02-24T09:14:45.151Z,16.73
2024-02-24T09:19:47.665Z,17.00
2024-02-24T09:24:51.219Z,20.57
2024-02-24T09:29:56.266Z,22.77
2024-02-24T09:35:01.125Z,18.37
2024-02-24T09:40:08.929Z,19.30
2024-02-24T09:45:20.116Z,19.33
2024-02-24T09:50:22.916Z,17.03
2024-02-24T09:55:26.293Z,17.53
2024-02-24T10:00:29.165Z,19.93
2024-02-24T10:05:31.857Z,22.57
2024-02-24T10:10:34.991Z,19.63
2024-02-24T10:15:38.530Z,18.00
2024-02-24T10:20:42.289Z,17.30
2024-02-24T10:25:48.738Z,15.57
2024-02-24T10:30:51.374Z,23.57
2024-02-24T10:35:58.243Z,20.10
2024-02-24T10:41:01.918Z,17.23
2024-02-24T10:46:04.700Z,17.70
2024-02-24T10:51:07.515Z,19.33
2024-02-24T10:56:10.992Z,19.37
2024-02-24T11:01:14.676Z,20.03
2024-02-24T11:06:46.918Z,17.03
2024-02-24T11:11:49.796Z,20.57
2024-02-24T11:16:53.019Z,18.37
2024-02-24T11:22:03.256Z,18.10
2024-02-24T11:27:06.692Z,16.73
2024-02-24T11:32:13.879Z,20.37
2024-02-24T11:37:20.480Z,20.37
2024-02-24T11:42:26.734Z,19.77
2024-02-24T11:47:29.589Z,20.50
2024-02-24T11:52:33.922Z,17.00
2024-02-24T11:57:39.326Z,20.93
2024-02-24T12:02:42.041Z,15.63
2024-02-24T12:07:45.122Z,16.57
2024-02-24T12:12:51.216Z,16.87
2024-02-24T12:17:54.343Z,15.00
2024-02-24T12:23:05.909Z,20.83
2024-02-24T12:28:08.615Z,19.90
2024-02-24T12:33:18.800Z,17.73
2024-02-24T12:38:21.937Z,17.60
2024-02-24T12:43:26.479Z,20.57
2024-02-24T12:48:30.177Z,16.03
2024-02-24T12:53:32.796Z,21.07
2024-02-24T12:58:45.367Z,20.47
2024-02-24T13:03:47.942Z,19.53
2024-02-24T13:08:51.704Z,19.07
2024-02-24T13:13:54.379Z,17.93
2024-02-24T13:18:58.088Z,18.47
2024-02-24T13:24:01.512Z,18.70
2024-02-24T13:29:05.190Z,15.33
2024-02-24T13:34:07.810Z,18.37
2024-02-24T13:39:12.104Z,17.57
2024-02-24T13:44:15.920Z,17.53
2024-02-24T13:49:23.671Z,22.60
2024-02-24T13:54:30.374Z,22.13
2024-02-24T13:59:33.432Z,18.93
2024-02-24T14:04:36.104Z,21.13
2024-02-24T14:09:38.839Z,19.80
2024-02-24T14:14:42.416Z,18.83
2024-02-24T14:19:45.130Z,18.27
2024-02-24T14:24:47.733Z,16.33
2024-02-24T14:29:50.583Z,21.77
2024-02-24T14:34:53.158Z,15.37
2024-02-24T14:39:58.599Z,17.67
2024-02-24T14:45:01.355Z,17.07
2024-02-24T14:50:05.146Z,16.03
2024-02-24T14:55:08.824Z,19.47
2024-02-24T15:00:14.855Z,16.73
2024-02-24T15:05:17.953Z,21.93
2024-02-24T15:10:21.928Z,16.10
2024-02-24T15:15:24.551Z,16.47
2024-02-24T15:20:27.126Z,16.83
2024-02-24T15:25:29.808Z,24.90
2024-02-24T15:30:32.291Z,17.47
2024-02-24T15:35:34.927Z,18.03
2024-02-24T15:40:40.774Z,16.83
2024-02-24T15:45:44.701Z,15.30
2024-02-24T15:50:48.321Z,19.47
2024-02-24T15:55:51.108Z,19.10
2024-02-24T16:00:53.720Z,19.23
2024-02-24T16:05:56.466Z,17.03
2024-02-24T16:10:59.320Z,16.07
2024-02-24T16:16:02.924Z,17.47
2024-02-24T16:21:05.525Z,16.97
2024-02-24T16:26:08.425Z,14.43
2024-02-24T16:31:11.017Z,14.80
2024-02-24T16:36:14.115Z,17.67
2024-02-24T16:41:16.711Z,16.97
2024-02-24T16:46:19.367Z,21.60
2024-02-24T16:51:22.049Z,15.20
2024-02-24T16:56:28.605Z,15.63
2024-02-24T17:01:31.253Z,18.57
2024-02-24T17:06:34.010Z,17.67
2024-02-24T17:11:37.723Z,15.53
2024-02-24T17:16:40.477Z,19.27
2024-02-24T17:21:43.040Z,17.70
2024-02-24T17:26:49.897Z,17.87
2024-02-24T17:31:57.742Z,13.73
2024-02-24T17:37:00.444Z,17.83
2024-02-24T17:42:03.137Z,13.50
2024-02-24T17:47:05.912Z,14.07
2024-02-24T17:52:08.513Z,16.27
2024-02-24T17:57:13.439Z,15.83
2024-02-24T18:02:16.650Z,17.60
2024-02-24T18:07:19.320Z,21.47
2024-02-24T18:12:22.176Z,16.80
2024-02-24T18:17:24.860Z,17.63
2024-02-24T18:22:27.884Z,15.10
2024-02-24T18:27:38.583Z,16.40
2024-02-24T18:32:41.683Z,16.30
2024-02-24T18:37:45.595Z,14.83
2024-02-24T18:42:48.231Z,12.40
2024-02-24T18:47:50.989Z,16.80
2024-02-24T18:52:53.603Z,13.80
2024-02-24T18:57:56.264Z,13.60
2024-02-24T19:02:58.963Z,15.07
2024-02-24T19:08:03.937Z,16.90
2024-02-24T19:13:06.802Z,14.83
2024-02-24T19:18:15.573Z,16.67
2024-02-24T19:23:19.047Z,15.20
2024-02-24T19:28:21.872Z,11.50
2024-02-24T19:33:26.341Z,15.47
2024-02-24T19:38:30.780Z,11.30
2024-02-24T19:43:33.498Z,15.83
2024-02-24T19:48:36.645Z,11.33
2024-02-24T19:53:39.323Z,12.53
2024-02-24T19:58:47.803Z,14.03
2024-02-24T20:03:57.698Z,11.73
2024-02-24T20:09:00.316Z,13.17
2024-02-24T20:14:02.976Z,10.27
2024-02-24T20:19:05.668Z,9.13
2024-02-24T20:24:08.468Z,12.77
2024-02-24T20:29:11.019Z,13.07
2024-02-24T20:34:16.110Z,8.53
2024-02-24T20:39:18.832Z,11.07
2024-02-24T20:44:21.324Z,7.07
2024-02-24T20:49:26.172Z,6.87
2024-02-24T20:54:31.236Z,8.70
2024-02-24T20:59:33.653Z,6.50
2024-02-24T21:04:36.776Z,7.27
2024-02-24T21:09:39.129Z,6.43
2024-02-24T21:14:41.543Z,8.10
2024-02-24T21:19:44.333Z,5.90
2024-02-24T21:24:46.714Z,6.70
2024-02-24T21:29:50.324Z,5.57
2024-02-24T21:34:52.794Z,6.83
2024-02-24T21:39:57.410Z,5.40
2024-02-24T21:45:00.418Z,3.30
2024-02-24T21:50:03.096Z,4.27
2024-02-24T21:55:06.671Z,5.50
2024-02-24T22:00:16.704Z,3.50
2024-02-24T22:05:20.680Z,3.93
2024-02-24T22:10:25.099Z,4.40
2024-02-24T22:15:27.603Z,4.67
2024-02-24T22:20:30.163Z,4.70
2024-02-24T22:25:32.675Z,5.70
2024-02-24T22:30:36.100Z,3.60
2024-02-24T22:35:38.771Z,7.10
2024-02-24T22:40:41.212Z,4.93
2024-02-24T22:45:43.920Z,5.10
2024-02-24T22:50:46.410Z,7.20
2024-02-24T22:55:48.999Z,3.97
2024-02-24T23:00:51.500Z,6.47
2024-02-24T23:05:54.018Z,3.80
2024-02-24T23:10:56.490Z,7.07
2024-02-24T23:15:59.051Z,7.63
2024-02-24T23:21:01.620Z,4.03
2024-02-24T23:26:04.980Z,5.43
2024-02-24T23:31:07.561Z,3.90
2024-02-24T23:36:13.974Z,4.83
2024-02-24T23:41:16.560Z,3.50
2024-02-24T23:46:19.011Z,3.87
2024-02-24T23:51:21.400Z,4.37
2024-02-24T23:56:25.148Z,5.90
